createdAt,value
2023-04-10T00:00:01.244Z,24.17
2023-04-10T00:04:20.031Z,31.40
2023-04-10T00:08:38.262Z,24.80
2023-04-10T00:12:56.309Z,36.80
2023-04-10T00:21:14.472Z,28.23
2023-04-10T00:25:32.991Z,51.78
2023-04-10T00:33:52.091Z,24.10
2023-04-10T00:38:10.804Z,28.77
2023-04-10T00:42:29.237Z,36.83
2023-04-10T00:46:47.604Z,27.95
2023-04-10T00:55:05.788Z,25.00
2023-04-10T00:58:29.143Z,40.13
2023-04-10T01:01:33.653Z,30.53
2023-04-10T01:04:39.116Z,35.63
2023-04-10T01:08:01.984Z,35.10
2023-04-10T01:11:28.334Z,34.63
2023-04-10T01:17:55.687Z,27.02
2023-04-10T01:21:03.571Z,26.67
2023-04-10T01:24:42.570Z,34.47
2023-04-10T01:28:17.130Z,25.35
2023-04-10T01:31:42.589Z,37.67
2023-04-10T01:34:50.678Z,56.53
2023-04-10T01:37:56.254Z,46.08
2023-04-10T01:41:02.490Z,33.17
2023-04-10T01:44:10.046Z,38.20
2023-04-10T01:47:17.972Z,37.08
2023-04-10T01:50:26.234Z,41.08
2023-04-10T01:53:32.417Z,39.40
2023-04-10T01:56:37.161Z,34.28
2023-04-10T01:59:42.013Z,38.17
2023-04-10T02:02:46.650Z,43.87
2023-04-10T02:06:16.635Z,43.45
2023-04-10T02:09:50.887Z,32.83
2023-04-10T02:13:05.086Z,39.72
2023-04-10T02:16:11.172Z,42.55
2023-04-10T02:19:18.274Z,38.35
2023-04-10T02:22:24.488Z,34.00
2023-04-10T02:25:29.253Z,37.85
2023-04-10T02:28:33.788Z,36.65
2023-04-10T02:31:39.285Z,43.58
2023-04-10T02:34:47.369Z,42.53
2023-04-10T02:37:51.928Z,34.08
2023-04-10T02:40:57.011Z,59.25
2023-04-10T02:44:01.871Z,42.00
2023-04-10T02:47:08.441Z,45.58
2023-04-10T02:50:18.212Z,62.28
2023-04-10T02:53:24.226Z,35.08
2023-04-10T02:56:31.834Z,40.92
2023-04-10T02:59:36.472Z,47.83
2023-04-10T03:02:43.228Z,47.58
2023-04-10T03:05:53.357Z,57.42
2023-04-10T03:09:04.061Z,39.78
2023-04-10T03:12:09.795Z,46.90
2023-04-10T03:15:14.058Z,63.30
2023-04-10T03:18:18.045Z,50.38
2023-04-10T03:21:24.075Z,49.03
2023-04-10T03:24:27.951Z,55.08
2023-04-10T03:27:35.545Z,61.42
2023-04-10T03:30:40.878Z,54.28
2023-04-10T03:33:45.860Z,48.53
2023-04-10T03:36:50.406Z,48.95
2023-04-10T03:39:55.196Z,57.77
2023-04-10T03:42:59.287Z,59.08
2023-04-10T03:46:06.964Z,79.60
2023-04-10T03:49:17.521Z,66.40
2023-04-10T03:52:23.385Z,53.17
2023-04-10T03:58:33.121Z,54.72
2023-04-10T04:01:37.719Z,48.70
2023-04-10T04:04:46.567Z,51.65
2023-04-10T04:07:58.043Z,48.88
2023-04-10T04:11:28.649Z,81.32
2023-04-10T04:14:36.723Z,102.80
2023-04-10T04:17:59.032Z,54.58
2023-04-10T04:24:37.924Z,70.68
2023-04-10T04:27:52.679Z,59.92
2023-04-10T04:31:09.791Z,48.60
2023-04-10T04:34:46.700Z,50.28
2023-04-10T04:38:11.292Z,56.28
2023-04-10T04:41:36.020Z,51.05
2023-04-10T04:44:43.341Z,49.50
2023-04-10T04:51:46.503Z,57.47
2023-04-10T04:55:04.037Z,52.15
2023-04-10T04:58:21.261Z,59.42
2023-04-10T05:01:38.831Z,52.60
2023-04-10T05:04:57.439Z,71.78
2023-04-10T05:08:18.122Z,57.90
2023-04-10T05:11:42.687Z,87.93
2023-04-10T05:28:29.815Z,69.60
2023-04-10T05:31:53.480Z,63.42
2023-04-10T05:35:29.869Z,57.30
2023-04-10T05:38:41.043Z,60.67
2023-04-10T05:42:11.382Z,53.67
2023-04-10T05:45:38.920Z,57.95
2023-04-10T05:49:03.522Z,56.40
2023-04-10T05:52:28.934Z,53.13
2023-04-10T05:55:52.528Z,63.78
2023-04-10T05:59:32.065Z,55.53
2023-04-10T06:02:57.636Z,56.72
2023-04-10T06:06:05.233Z,50.30
2023-04-10T06:09:09.655Z,46.60
2023-04-10T06:12:14.207Z,47.08
2023-04-10T06:15:18.935Z,53.78
2023-04-10T06:18:24.393Z,47.97
2023-04-10T06:21:28.799Z,48.17
2023-04-10T06:24:32.973Z,44.97
2023-04-10T06:27:37.459Z,41.38
2023-04-10T06:30:45.551Z,48.65
2023-04-10T06:33:50.808Z,40.83
2023-04-10T06:40:11.809Z,36.95
2023-04-10T06:43:16.119Z,47.47
2023-04-10T06:46:20.201Z,39.85
2023-04-10T06:49:25.042Z,51.38
2023-04-10T06:52:29.432Z,49.58
2023-04-10T06:55:33.746Z,42.25
2023-04-10T06:58:38.026Z,40.00
2023-04-10T07:01:42.559Z,45.58
2023-04-10T07:04:47.169Z,43.90
2023-04-10T07:07:51.800Z,44.08
2023-04-10T07:10:58.609Z,46.00
2023-04-10T07:14:03.722Z,43.55
2023-04-10T07:17:08.263Z,56.97
2023-04-10T07:20:12.852Z,51.53
2023-04-10T07:23:17.647Z,74.43
2023-04-10T07:26:22.371Z,55.78
2023-04-10T07:29:27.110Z,47.45
2023-04-10T07:32:31.796Z,49.55
2023-04-10T07:35:37.238Z,42.28
2023-04-10T07:41:45.594Z,55.45
2023-04-10T07:44:49.512Z,44.75
2023-04-10T07:47:54.000Z,63.55
2023-04-10T07:50:59.765Z,176.68
2023-04-10T07:54:07.162Z,39.38
2023-04-10T07:57:11.045Z,37.13
2023-04-10T08:00:15.407Z,34.80
2023-04-10T08:03:20.052Z,40.30
2023-04-10T08:06:24.491Z,35.83
2023-04-10T08:09:28.904Z,60.67
2023-04-10T08:12:35.550Z,42.92
2023-04-10T08:15:40.004Z,46.70
2023-04-10T08:18:44.506Z,51.97
2023-04-10T08:21:48.549Z,69.30
2023-04-10T08:24:52.394Z,52.58
2023-04-10T08:27:56.542Z,38.97
2023-04-10T08:31:00.981Z,59.53
2023-04-10T08:34:05.450Z,47.73
2023-04-10T08:37:13.026Z,51.57
2023-04-10T08:40:17.601Z,36.65
2023-04-10T08:43:21.967Z,52.47
2023-04-10T08:46:27.303Z,56.67
2023-04-10T08:49:57.977Z,49.00
2023-04-10T08:53:07.367Z,32.00
2023-04-10T08:56:17.681Z,30.17
2023-04-10T08:59:22.695Z,61.28
2023-04-10T09:02:26.830Z,46.83
2023-04-10T09:05:31.631Z,44.78
2023-04-10T09:08:36.739Z,45.13
2023-04-10T09:11:56.908Z,43.50
2023-04-10T09:15:01.473Z,45.33
2023-04-10T09:18:06.366Z,35.15
2023-04-10T09:21:16.906Z,58.10
2023-04-10T09:24:21.048Z,51.67
2023-04-10T09:27:40.970Z,42.08
2023-04-10T09:30:45.666Z,38.47
2023-04-10T09:33:50.136Z,44.27
2023-04-10T09:36:57.625Z,47.53
2023-04-10T09:40:02.772Z,52.03
2023-04-10T09:43:26.622Z,47.40
2023-04-10T09:46:31.135Z,43.70
2023-04-10T09:49:51.290Z,57.33
2023-04-10T09:52:59.448Z,68.97
2023-04-10T09:56:06.147Z,104.60
2023-04-10T09:59:11.336Z,60.75
2023-04-10T10:02:20.278Z,74.70
2023-04-10T10:05:31.264Z,55.67
2023-04-10T10:08:37.709Z,96.68
2023-04-10T10:11:41.673Z,88.32
2023-04-10T10:15:16.569Z,102.45
2023-04-10T10:19:05.773Z,69.45
2023-04-10T10:22:11.937Z,39.20
2023-04-10T10:25:16.562Z,41.35
2023-04-10T10:28:22.374Z,53.33
2023-04-10T10:31:33.419Z,55.10
2023-04-10T10:34:38.773Z,53.33
2023-04-10T10:41:03.747Z,44.17
2023-04-10T10:44:44.531Z,55.50
2023-04-10T10:47:56.612Z,61.67
2023-04-10T10:51:02.944Z,97.22
2023-04-10T10:54:29.645Z,83.90
2023-04-10T10:57:55.673Z,49.72
2023-04-10T11:01:00.876Z,41.75
2023-04-10T11:04:45.827Z,43.88
2023-04-10T11:08:04.401Z,93.18
2023-04-10T11:11:13.212Z,44.88
2023-04-10T11:14:20.179Z,46.03
2023-04-10T11:17:52.696Z,52.45
2023-04-10T11:21:19.627Z,77.25
2023-04-10T11:24:25.402Z,53.40
2023-04-10T11:27:41.411Z,51.40
2023-04-10T11:30:48.000Z,61.47
2023-04-10T11:34:01.446Z,46.17
2023-04-10T11:37:07.908Z,43.03
2023-04-10T11:40:15.405Z,45.28
2023-04-10T11:46:24.033Z,48.83
2023-04-10T11:49:32.560Z,44.53
2023-04-10T11:52:37.666Z,34.28
2023-04-10T11:55:42.255Z,44.40
2023-04-10T11:58:49.602Z,48.30
2023-04-10T12:01:57.048Z,85.25
2023-04-10T12:05:01.978Z,53.20
2023-04-10T12:08:07.012Z,48.60
2023-04-10T12:11:12.281Z,39.13
2023-04-10T12:14:17.018Z,42.42
2023-04-10T12:17:21.952Z,47.50
2023-04-10T12:20:29.916Z,46.63
2023-04-10T12:23:38.200Z,40.17
2023-04-10T12:26:52.498Z,43.00
2023-04-10T12:29:58.800Z,32.35
2023-04-10T12:33:06.651Z,35.88
2023-04-10T12:36:22.996Z,37.55
2023-04-10T12:39:27.743Z,37.67
2023-04-10T12:42:44.833Z,39.63
2023-04-10T12:45:49.232Z,34.13
2023-04-10T12:48:54.270Z,35.08
2023-04-10T12:51:58.986Z,38.67
2023-04-10T12:55:16.821Z,38.70
2023-04-10T12:58:28.971Z,68.03
2023-04-10T13:01:33.427Z,34.78
2023-04-10T13:04:39.888Z,32.30
2023-04-10T13:07:44.119Z,35.25
2023-04-10T13:10:48.727Z,35.22
2023-04-10T13:13:53.586Z,35.80
2023-04-10T13:16:57.658Z,33.43
2023-04-10T13:20:01.976Z,28.85
2023-04-10T13:23:07.041Z,34.88
2023-04-10T13:26:11.725Z,32.55
2023-04-10T13:29:18.060Z,38.28
2023-04-10T13:32:23.757Z,23.17
2023-04-10T13:35:28.579Z,26.95
2023-04-10T13:38:32.374Z,32.93
2023-04-10T13:41:36.738Z,27.55
2023-04-10T13:44:41.388Z,23.50
2023-04-10T13:47:45.506Z,31.47
2023-04-10T13:50:49.794Z,29.70
2023-04-10T13:53:53.864Z,32.35
2023-04-10T13:56:59.972Z,26.00
2023-04-10T14:00:05.550Z,24.27
2023-04-10T14:03:16.694Z,34.58
2023-04-10T14:06:21.340Z,28.90
2023-04-10T14:09:25.573Z,83.22
2023-04-10T14:12:29.839Z,36.28
2023-04-10T14:15:34.783Z,24.23
2023-04-10T14:18:38.652Z,28.17
2023-04-10T14:21:45.268Z,36.00
2023-04-10T14:24:51.116Z,30.15
2023-04-10T14:27:57.198Z,33.67
2023-04-10T14:31:01.984Z,29.65
2023-04-10T14:34:06.184Z,27.45
2023-04-10T14:37:10.640Z,31.42
2023-04-10T14:40:14.784Z,29.37
2023-04-10T14:43:20.248Z,37.40
2023-04-10T14:49:30.970Z,30.98
2023-04-10T14:52:35.722Z,41.60
2023-04-10T14:55:39.873Z,37.40
2023-04-10T14:58:44.701Z,37.95
2023-04-10T15:01:49.392Z,32.65
2023-04-10T15:04:54.197Z,31.17
2023-04-10T15:07:58.250Z,36.43
2023-04-10T15:11:02.875Z,52.03
2023-04-10T15:14:08.253Z,41.05
2023-04-10T15:17:12.999Z,42.40
2023-04-10T15:20:17.541Z,40.50
2023-04-10T15:23:21.571Z,53.60
2023-04-10T15:26:25.920Z,46.70
2023-04-10T15:29:29.809Z,45.83
2023-04-10T15:32:34.357Z,48.67
2023-04-10T15:35:38.326Z,79.73
2023-04-10T15:38:42.512Z,51.15
2023-04-10T15:41:46.514Z,126.07
2023-04-10T15:44:50.910Z,65.78
2023-04-10T15:47:55.306Z,59.63
2023-04-10T15:51:00.756Z,48.35
2023-04-10T15:54:06.154Z,60.72
2023-04-10T15:57:11.345Z,54.50
2023-04-10T16:00:16.499Z,52.90
2023-04-10T16:03:21.228Z,58.80
2023-04-10T16:06:26.875Z,58.28
2023-04-10T16:12:35.441Z,46.08
2023-04-10T16:15:40.479Z,52.83
2023-04-10T16:18:48.143Z,54.22
2023-04-10T16:21:52.790Z,44.67
2023-04-10T16:24:58.055Z,66.20
2023-04-10T16:28:08.733Z,65.38
2023-04-10T16:31:13.487Z,56.25
2023-04-10T16:34:17.994Z,60.87
2023-04-10T16:37:22.643Z,58.45
2023-04-10T16:40:33.190Z,48.43
2023-04-10T16:43:37.526Z,77.32
2023-04-10T16:46:42.144Z,61.30
2023-04-10T16:50:12.342Z,60.05
2023-04-10T16:53:17.624Z,49.38
2023-04-10T16:56:21.660Z,58.08
2023-04-10T16:59:26.641Z,54.60
2023-04-10T17:02:31.438Z,49.10
2023-04-10T17:05:38.849Z,48.30
2023-04-10T17:08:43.411Z,63.35
2023-04-10T17:11:47.348Z,55.85
2023-04-10T17:14:52.906Z,61.08
2023-04-10T17:21:01.694Z,59.03
2023-04-10T17:24:06.200Z,63.90
2023-04-10T17:27:10.414Z,62.28
2023-04-10T17:30:15.243Z,54.50
2023-04-10T17:33:19.597Z,54.43
2023-04-10T17:36:23.698Z,73.53
2023-04-10T17:39:28.604Z,74.03
2023-04-10T17:42:33.099Z,85.00
2023-04-10T17:45:41.459Z,76.93
2023-04-10T17:48:46.539Z,77.97
2023-04-10T17:51:50.845Z,86.20
2023-04-10T17:54:55.227Z,77.15
2023-04-10T17:57:59.967Z,91.03
2023-04-10T18:01:04.569Z,84.55
2023-04-10T18:04:08.809Z,82.38
2023-04-10T18:07:13.406Z,81.72
2023-04-10T18:10:17.830Z,92.40
2023-04-10T18:13:21.890Z,85.85
2023-04-10T18:16:26.862Z,80.75
2023-04-10T18:19:31.877Z,80.35
2023-04-10T18:22:35.755Z,77.30
2023-04-10T18:25:39.585Z,84.68
2023-04-10T18:28:44.401Z,88.80
2023-04-10T18:31:48.503Z,85.05
2023-04-10T18:34:53.074Z,91.38
2023-04-10T18:37:57.856Z,86.65
2023-04-10T18:41:01.830Z,76.45
2023-04-10T18:44:06.348Z,83.75
2023-04-10T18:47:11.815Z,86.47
2023-04-10T18:50:16.647Z,76.75
2023-04-10T18:53:22.034Z,87.72
2023-04-10T18:56:26.679Z,84.60
2023-04-10T18:59:30.824Z,78.68
2023-04-10T19:02:35.484Z,89.07
2023-04-10T19:05:40.202Z,79.43
2023-04-10T19:08:44.935Z,81.45
2023-04-10T19:11:49.511Z,85.63
2023-04-10T19:14:53.852Z,89.80
2023-04-10T19:17:58.177Z,65.65
2023-04-10T19:21:03.488Z,69.72
2023-04-10T19:24:08.318Z,83.88
2023-04-10T19:27:13.129Z,84.37
2023-04-10T19:30:17.688Z,74.37
2023-04-10T19:33:22.627Z,83.50
2023-04-10T19:36:28.269Z,65.87
2023-04-10T19:39:32.852Z,75.47
2023-04-10T19:42:37.470Z,72.37
2023-04-10T19:45:42.526Z,80.97
2023-04-10T19:48:47.382Z,84.90
2023-04-10T19:51:51.858Z,77.22
2023-04-10T19:54:56.514Z,71.60
2023-04-10T19:58:01.278Z,80.20
2023-04-10T20:01:09.588Z,80.82
2023-04-10T20:04:14.087Z,97.47
2023-04-10T20:07:18.493Z,71.18
2023-04-10T20:10:23.343Z,77.45
2023-04-10T20:13:27.613Z,82.45
2023-04-10T20:16:31.955Z,62.80
2023-04-10T20:19:36.199Z,70.90
2023-04-10T20:22:40.429Z,73.20
2023-04-10T20:25:47.127Z,76.57
2023-04-10T20:28:51.709Z,78.95
2023-04-10T20:31:56.408Z,62.78
2023-04-10T20:35:01.099Z,71.72
2023-04-10T20:38:06.710Z,73.40
2023-04-10T20:41:11.127Z,57.95
2023-04-10T20:44:15.847Z,63.10
2023-04-10T20:47:19.920Z,76.18
2023-04-10T20:50:24.377Z,72.85
2023-04-10T20:53:30.204Z,68.32
2023-04-10T20:56:42.794Z,56.78
2023-04-10T20:59:48.338Z,81.90
2023-04-10T21:02:53.191Z,61.10
2023-04-10T21:05:58.070Z,71.60
2023-04-10T21:09:02.507Z,68.87
2023-04-10T21:12:07.453Z,70.47
2023-04-10T21:15:12.438Z,79.15
2023-04-10T21:18:16.966Z,81.40
2023-04-10T21:21:21.561Z,80.78
2023-04-10T21:24:25.958Z,72.72
2023-04-10T21:27:30.289Z,73.95
2023-04-10T21:30:34.813Z,65.60
2023-04-10T21:33:39.184Z,66.00
2023-04-10T21:36:43.724Z,61.88
2023-04-10T21:39:48.159Z,66.35
2023-04-10T21:42:54.773Z,64.15
2023-04-10T21:46:02.695Z,61.25
2023-04-10T21:49:08.108Z,73.70
2023-04-10T21:52:13.204Z,69.75
2023-04-10T21:55:17.293Z,74.07
2023-04-10T21:58:21.479Z,74.78
2023-04-10T22:01:29.303Z,57.90
2023-04-10T22:04:38.928Z,72.38
2023-04-10T22:07:49.054Z,78.75
2023-04-10T22:10:53.269Z,79.80
2023-04-10T22:14:00.175Z,70.82
2023-04-10T22:17:10.381Z,84.13
2023-04-10T22:20:14.525Z,74.05
2023-04-10T22:23:18.394Z,61.83
2023-04-10T22:26:25.396Z,71.80
2023-04-10T22:29:29.675Z,67.57
2023-04-10T22:32:34.429Z,82.32
2023-04-10T22:35:39.346Z,70.03
2023-04-10T22:38:43.494Z,63.23
2023-04-10T22:41:48.565Z,59.05
2023-04-10T22:44:52.715Z,69.97
2023-04-10T22:47:57.446Z,66.35
2023-04-10T22:51:01.911Z,60.17
2023-04-10T22:54:06.568Z,69.97
2023-04-10T22:57:11.193Z,59.10
2023-04-10T23:00:18.130Z,71.55
2023-04-10T23:03:22.574Z,76.15
2023-04-10T23:06:28.094Z,64.22
2023-04-10T23:09:32.575Z,72.07
2023-04-10T23:12:37.304Z,64.35
2023-04-10T23:15:41.621Z,73.87
2023-04-10T23:18:46.151Z,63.10
2023-04-10T23:21:51.399Z,60.40
2023-04-10T23:24:58.871Z,65.95
2023-04-10T23:28:04.363Z,61.42
2023-04-10T23:31:09.885Z,68.95
2023-04-10T23:34:14.177Z,75.68
2023-04-10T23:37:18.689Z,78.80
2023-04-10T23:40:22.851Z,62.42
2023-04-10T23:43:26.643Z,56.90
2023-04-10T23:46:31.066Z,63.40
2023-04-10T23:49:37.942Z,63.00
2023-04-10T23:52:41.977Z,63.88
2023-04-10T23:55:46.328Z,59.33
2023-04-10T23:58:51.035Z,51.28
